Time;durP1;ratioP1;P1;durP2;ratioP2;P2;SDS_P1;SDS_P2;PMS_P1;PMS_P2;Temp;Humidity;BMP_temperature;BMP_pressure;BME280_temperature;BME280_humidity;BME280_pressure;Samples;Min_cycle;Max_cycle;Signal;HPM_P1;HPM_P2
2022/06/09 00:01:24;;;;;;;0.40;0.40;;;20.20;65.90;;;20.59;49.57;94150.41;4700172;30;20248;-80
2022/06/09 00:04:02;;;;;;;0.40;0.40;;;20.20;66.00;;;20.56;49.40;94139.50;4687009;30;20771;-80
2022/06/09 00:06:41;;;;;;;0.40;0.40;;;20.20;66.00;;;20.56;49.15;94142.16;4700945;30;20249;-80
2022/06/09 00:09:08;;;;;;;0.40;0.40;;;20.10;66.10;;;20.53;48.98;94135.50;4717545;30;20214;-79
2022/06/09 00:11:40;;;;;;;0.40;0.40;;;20.10;65.60;;;20.51;49.81;94129.66;4703137;30;20250;-80
2022/06/09 00:14:09;;;;;;;0.40;0.40;;;20.20;65.90;;;20.50;49.57;94135.25;4726773;30;20211;-79
2022/06/09 00:16:37;;;;;;;0.40;0.40;;;20.10;65.90;;;20.47;50.13;94137.41;4731401;30;20204;-80
2022/06/09 00:19:05;;;;;;;0.40;0.40;;;20.10;66.00;;;20.43;50.11;94132.88;4731910;30;20210;-79
2022/06/09 00:21:34;;;;;;;0.50;0.50;;;20.10;65.90;;;20.38;50.35;94124.91;4697773;30;20620;-79
2022/06/09 00:24:02;;;;;;;0.57;0.57;;;20.00;65.90;;;20.35;49.86;94123.59;4717065;30;20266;-80
2022/06/09 00:26:31;;;;;;;0.40;0.40;;;20.00;65.80;;;20.27;49.88;94113.50;4702323;30;20212;-80
2022/06/09 00:28:58;;;;;;;0.47;0.47;;;20.00;65.70;;;20.26;50.10;94114.56;4717011;30;20227;-79
2022/06/09 00:31:25;;;;;;;0.45;0.45;;;19.90;65.70;;;20.23;50.02;94115.13;4715179;30;20252;-79
2022/06/09 00:33:53;;;;;;;0.40;0.40;;;19.90;65.70;;;20.17;50.15;94111.69;4714703;30;20263;-80
2022/06/09 00:36:20;;;;;;;0.43;0.43;;;19.80;65.70;;;20.11;50.86;94115.44;4671121;30;20204;-79
2022/06/09 00:38:47;;;;;;;0.50;0.50;;;19.90;66.10;;;20.03;50.41;94113.31;4685765;30;20222;-79
2022/06/09 00:41:14;;;;;;;0.45;0.45;;;19.70;66.00;;;19.93;50.85;94114.97;4719609;30;20247;-80
2022/06/09 00:43:43;;;;;;;0.50;0.50;;;19.60;66.00;;;19.85;50.76;94110.19;4699543;30;20240;-79
2022/06/09 00:46:12;;;;;;;0.40;0.40;;;19.70;66.00;;;19.79;51.23;94114.66;4699366;30;20247;-80
2022/06/09 00:49:00;;;;;;;0.40;0.40;;;19.60;66.30;;;19.69;51.14;94114.72;4685116;30;20207;-79
2022/06/09 00:51:35;;;;;;;0.50;0.50;;;19.50;66.10;;;19.64;51.03;94114.69;4706901;30;20230;-80
2022/06/09 00:54:17;;;;;;;0.50;0.50;;;19.40;66.70;;;19.56;51.14;94117.91;4699329;30;20306;-79
2022/06/09 00:56:55;;;;;;;0.45;0.45;;;19.30;66.50;;;19.49;51.52;94116.31;4699258;30;20680;-80
2022/06/09 00:59:28;;;;;;;0.50;0.50;;;19.30;66.60;;;19.46;51.46;94116.06;4698525;30;20228;-79
2022/06/09 01:02:02;;;;;;;0.47;0.47;;;19.20;66.70;;;19.41;51.46;94113.38;4725808;30;20566;-80
2022/06/09 01:04:31;;;;;;;0.50;0.50;;;19.10;67.10;;;19.36;52.25;94114.22;4713484;30;20271;-79
2022/06/09 01:07:07;;;;;;;0.50;0.50;;;19.10;66.90;;;19.32;51.81;94123.75;4714245;30;20624;-80
2022/06/09 01:09:35;;;;;;;0.50;0.50;;;19.00;67.00;;;19.31;52.02;94127.47;4699154;30;20286;-79
2022/06/09 01:12:32;;;;;;;0.50;0.50;;;19.00;66.90;;;19.28;51.77;94134.13;4698868;30;20204;-80
2022/06/09 01:15:14;;;;;;;0.50;0.50;;;19.10;67.00;;;19.28;52.51;94136.78;4698779;30;20671;-80
2022/06/09 01:18:02;;;;;;;0.40;0.40;;;19.10;67.70;;;19.28;52.48;94138.66;4710294;30;20214;-78
2022/06/09 01:20:48;;;;;;;0.40;0.40;;;19.10;67.20;;;19.27;52.59;94145.03;4717896;30;20223;-78
2022/06/09 01:23:40;;;;;;;0.50;0.50;;;19.00;67.60;;;19.26;52.87;94148.75;4730028;30;20247;-80
2022/06/09 01:26:33;;;;;;;0.60;0.60;;;19.00;67.60;;;19.22;52.61;94148.47;4705010;30;20323;-79
2022/06/09 01:29:15;;;;;;;0.50;0.50;;;19.10;67.60;;;19.18;52.59;94152.75;4713093;30;20208;-78
2022/06/09 01:32:20;;;;;;;0.50;0.50;;;19.00;67.40;;;19.07;54.04;94161.78;4716272;30;20290;-78
2022/06/09 01:35:11;;;;;;;0.50;0.50;;;19.00;68.00;;;18.96;54.44;94161.75;4705280;30;20318;-78
2022/06/09 01:37:48;;;;;;;0.50;0.50;;;18.90;67.80;;;18.88;53.50;94155.06;4698743;30;20724;-79
2022/06/09 01:40:18;;;;;;;0.50;0.50;;;18.90;67.80;;;18.81;53.81;94149.19;4684411;30;20344;-79
2022/06/09 01:42:50;;;;;;;0.50;0.50;;;18.80;67.80;;;18.76;54.10;94145.72;4698664;30;20249;-78
2022/06/09 01:45:50;;;;;;;0.60;0.60;;;18.70;67.70;;;18.66;54.43;94151.81;4710601;30;20746;-79
2022/06/09 01:48:20;;;;;;;0.50;0.50;;;18.70;68.00;;;18.58;54.45;94150.47;4702162;30;20220;-79
2022/06/09 01:51:17;;;;;;;0.57;0.57;;;18.60;68.10;;;18.46;54.85;94148.03;4701224;30;20227;-78
2022/06/09 01:54:01;;;;;;;0.50;0.50;;;18.50;68.10;;;18.35;55.34;94149.06;4699499;30;20302;-78
2022/06/09 01:56:36;;;;;;;0.50;0.50;;;18.40;68.30;;;18.28;55.94;94159.09;4684561;30;20200;-79
2022/06/09 01:59:13;;;;;;;0.50;0.50;;;18.50;69.20;;;18.16;56.03;94154.00;4698462;30;20224;-78
2022/06/09 02:01:49;;;;;;;0.50;0.50;;;18.30;69.00;;;18.10;56.14;94144.41;4712845;30;20211;-78
2022/06/09 02:04:24;;;;;;;0.57;0.57;;;18.20;69.30;;;17.98;56.22;94142.78;4700949;30;20243;-79
2022/06/09 02:06:52;;;;;;;0.50;0.50;;;18.10;69.60;;;17.88;56.51;94151.44;4698267;30;20218;-79
2022/06/09 02:09:24;;;;;;;0.50;0.50;;;18.00;69.40;;;17.84;57.41;94141.59;4698171;30;20220;-79
2022/06/09 02:11:56;;;;;;;0.52;0.52;;;18.00;70.00;;;17.77;56.76;94137.31;4683930;30;20227;-79
2022/06/09 02:14:27;;;;;;;0.50;0.50;;;17.90;70.00;;;17.70;56.95;94146.53;4699818;30;20642;-78
2022/06/09 02:16:56;;;;;;;0.50;0.50;;;17.80;70.10;;;17.64;56.85;94134.28;4730127;30;20196;-79
2022/06/09 02:19:25;;;;;;;0.50;0.50;;;17.70;69.80;;;17.59;56.63;94132.44;4715445;30;20293;-79
2022/06/09 02:21:52;;;;;;;0.50;0.50;;;17.60;69.70;;;17.56;55.85;94128.41;4713180;30;20559;-79
2022/06/09 02:24:20;;;;;;;0.60;0.60;;;17.60;69.70;;;17.52;56.68;94135.28;4729905;30;20235;-79
2022/06/09 02:26:47;;;;;;;0.60;0.60;;;17.50;70.10;;;17.47;57.38;94139.75;4729932;30;20218;-79
2022/06/09 02:29:14;;;;;;;0.40;0.40;;;17.40;70.20;;;17.41;56.58;94139.72;4729772;30;20227;-79
2022/06/09 02:31:42;;;;;;;0.50;0.50;;;17.40;70.10;;;17.36;57.21;94139.69;4711606;30;20208;-79
2022/06/09 02:34:10;;;;;;;0.57;0.57;;;17.40;70.40;;;17.28;58.16;94151.56;4683924;30;20712;-78
2022/06/09 02:36:38;;;;;;;0.60;0.60;;;17.30;70.70;;;17.18;58.33;94132.91;4698008;30;20319;-80
2022/06/09 02:39:06;;;;;;;0.63;0.63;;;17.20;70.90;;;17.19;57.53;94145.09;4698380;30;20219;-79
2022/06/09 02:41:34;;;;;;;0.50;0.50;;;17.20;70.70;;;17.16;57.21;94148.25;4698129;30;20687;-80
2022/06/09 02:44:02;;;;;;;0.50;0.50;;;17.10;70.80;;;17.11;57.66;94149.03;4683467;30;20294;-79
2022/06/09 02:46:30;;;;;;;0.50;0.50;;;17.10;70.70;;;17.09;57.69;94152.97;4683586;30;20266;-79
2022/06/09 02:48:59;;;;;;;0.60;0.60;;;17.10;70.90;;;17.02;58.45;94149.72;4697976;30;20201;-78
2022/06/09 02:51:31;;;;;;;0.60;0.60;;;17.00;70.80;;;16.98;57.99;94149.44;4696821;30;20250;-79
2022/06/09 02:54:04;;;;;;;0.50;0.50;;;16.90;71.30;;;16.94;57.64;94157.06;4697782;30;20735;-79
2022/06/09 02:56:32;;;;;;;0.60;0.60;;;16.90;71.40;;;16.89;58.89;94156.19;4695808;30;20224;-79
2022/06/09 02:58:59;;;;;;;0.60;0.60;;;16.80;71.50;;;16.85;58.70;94158.53;4683447;30;20200;-78
2022/06/09 03:01:28;;;;;;;0.50;0.50;;;16.80;72.00;;;16.79;59.68;94154.22;4701140;30;20310;-79
2022/06/09 03:03:57;;;;;;;0.50;0.50;;;16.80;71.80;;;16.78;58.57;94156.09;4715187;30;20627;-79
2022/06/09 03:06:25;;;;;;;0.60;0.60;;;16.70;71.70;;;16.73;59.31;94155.22;4715228;30;20206;-79
2022/06/09 03:08:52;;;;;;;0.57;0.57;;;16.80;72.20;;;16.70;60.19;94155.72;4715078;30;20224;-78
2022/06/09 03:11:20;;;;;;;0.50;0.50;;;16.70;72.50;;;16.66;59.99;94150.13;4713809;30;20235;-80
2022/06/09 03:13:48;;;;;;;0.60;0.60;;;16.70;72.70;;;16.62;60.19;94157.78;4712393;30;20299;-78
2022/06/09 03:16:17;;;;;;;0.60;0.60;;;16.60;72.60;;;16.57;60.69;94154.25;4683460;30;20228;-79
2022/06/09 03:18:45;;;;;;;0.57;0.57;;;16.60;73.20;;;16.49;61.17;94147.56;4693058;30;20220;-79
2022/06/09 03:21:14;;;;;;;0.50;0.50;;;16.50;73.20;;;16.47;61.17;94149.66;4697635;30;20235;-79
2022/06/09 03:23:41;;;;;;;0.70;0.70;;;16.50;73.30;;;16.46;61.15;94164.72;4686404;30;20244;-78
2022/06/09 03:26:08;;;;;;;0.60;0.60;;;16.60;73.50;;;16.47;60.51;94162.91;4686440;30;20232;-79
2022/06/09 03:28:36;;;;;;;0.50;0.50;;;16.50;73.40;;;16.47;60.50;94162.91;4688693;30;20797;-79
2022/06/09 03:31:03;;;;;;;0.60;0.60;;;16.50;73.40;;;16.45;60.24;94165.78;4729658;30;20730;-79
2022/06/09 03:33:31;;;;;;;0.50;0.50;;;16.40;73.20;;;16.45;60.06;94170.28;4729701;30;20220;-78
2022/06/09 03:35:58;;;;;;;0.50;0.50;;;16.50;73.30;;;16.43;60.31;94167.88;4729548;30;20224;-79
2022/06/09 03:38:25;;;;;;;0.50;0.50;;;16.40;73.40;;;16.44;60.36;94176.59;4704093;30;20287;-79
2022/06/09 03:40:52;;;;;;;0.50;0.50;;;16.40;73.40;;;16.42;60.43;94179.50;4685760;30;20647;-78
2022/06/09 03:43:20;;;;;;;0.50;0.50;;;16.40;73.60;;;16.41;61.06;94177.13;4700469;30;20232;-80
2022/06/09 03:45:47;;;;;;;0.50;0.50;;;16.40;73.80;;;16.40;60.01;94171.00;4688537;30;20659;-79
2022/06/09 03:48:15;;;;;;;0.60;0.60;;;16.50;73.60;;;16.45;60.03;94186.97;4729962;30;20217;-79
2022/06/09 03:50:42;;;;;;;0.60;0.60;;;16.40;73.30;;;16.43;59.68;94191.69;4687956;30;20248;-80
2022/06/09 03:53:10;;;;;;;0.60;0.60;;;16.40;73.10;;;16.49;59.52;94190.72;4714799;30;20212;-80
2022/06/09 03:55:37;;;;;;;0.52;0.52;;;16.40;73.00;;;16.48;59.86;94194.41;4686506;30;20758;-79
2022/06/09 03:58:04;;;;;;;0.52;0.52;;;16.40;73.20;;;16.49;59.92;94185.41;4717707;30;20204;-80
2022/06/09 04:00:32;;;;;;;0.50;0.50;;;16.40;73.20;;;16.54;60.30;94200.56;4714234;30;20240;-79
2022/06/09 04:03:00;;;;;;;0.60;0.60;;;16.50;73.50;;;16.55;60.25;94198.72;4686900;30;20212;-80
2022/06/09 04:05:28;;;;;;;0.50;0.50;;;16.50;73.50;;;16.54;60.40;94202.41;4686173;30;20319;-79
2022/06/09 04:07:55;;;;;;;0.50;0.50;;;16.50;73.60;;;16.57;59.89;94197.41;4685882;30;20247;-80
2022/06/09 04:10:27;;;;;;;0.50;0.50;;;16.50;73.30;;;16.60;59.24;94199.56;4682116;30;20235;-79
2022/06/09 04:12:54;;;;;;;0.50;0.50;;;16.50;73.30;;;16.61;59.36;94197.72;4717439;30;20216;-79
2022/06/09 04:15:22;;;;;;;0.50;0.50;;;16.50;73.10;;;16.58;60.13;94191.06;4717592;30;20227;-79
2022/06/09 04:17:51;;;;;;;0.50;0.50;;;16.70;73.20;;;16.61;59.43;94184.47;4717377;30;20219;-80
2022/06/09 04:20:23;;;;;;;0.50;0.50;;;16.60;73.10;;;16.59;59.70;94197.97;4700783;30;20254;-79
2022/06/09 04:22:51;;;;;;;0.60;0.60;;;16.60;73.40;;;16.56;59.96;94189.72;4731808;30;20601;-79
2022/06/09 04:25:20;;;;;;;0.60;0.60;;;16.60;73.20;;;16.54;59.46;94191.81;4717184;30;20239;-80
2022/06/09 04:27:47;;;;;;;0.50;0.50;;;16.50;73.10;;;16.52;59.54;94194.72;4716181;30;20254;-78
2022/06/09 04:30:16;;;;;;;0.70;0.70;;;16.60;73.20;;;16.53;59.65;94190.19;4731616;30;20246;-80
2022/06/09 04:32:51;;;;;;;0.50;0.50;;;16.60;73.10;;;16.51;60.10;94195.75;4703143;30;20206;-80
2022/06/09 04:35:18;;;;;;;0.50;0.50;;;16.50;73.30;;;16.43;60.63;94182.94;4716740;30;20238;-80
2022/06/09 04:38:01;;;;;;;0.50;0.50;;;16.50;73.60;;;16.47;59.93;94192.00;4714440;30;20219;-80
2022/06/09 04:40:37;;;;;;;0.50;0.50;;;16.50;73.50;;;16.44;61.01;94195.13;4704686;30;20215;-79
2022/06/09 04:43:08;;;;;;;0.60;0.60;;;16.50;73.60;;;16.39;60.74;94197.72;4716888;30;20207;-80
2022/06/09 04:45:38;;;;;;;0.50;0.50;;;16.60;73.70;;;16.44;60.46;94209.19;4715952;30;20707;-81
2022/06/09 04:48:06;;;;;;;0.50;0.50;;;16.60;73.70;;;16.46;60.35;94207.06;4716800;30;20281;-80
2022/06/09 04:50:34;;;;;;;0.50;0.50;;;16.50;73.50;;;16.48;60.44;94217.44;4699425;30;20232;-81
2022/06/09 04:53:01;;;;;;;0.50;0.50;;;16.50;73.60;;;16.49;60.39;94211.88;4699362;30;20215;-80
2022/06/09 04:55:29;;;;;;;0.50;0.50;;;16.50;73.60;;;16.52;60.42;94217.75;4710841;30;20335;-79
2022/06/09 04:57:58;;;;;;;0.50;0.50;;;16.50;73.50;;;16.53;60.56;94220.13;4698790;30;20267;-79
2022/06/09 05:00:27;;;;;;;0.60;0.60;;;16.50;73.50;;;16.57;60.01;94228.41;4685214;30;20232;-79
2022/06/09 05:02:56;;;;;;;0.60;0.60;;;16.60;73.70;;;16.61;59.67;94235.59;4685090;30;20299;-80
2022/06/09 05:05:32;;;;;;;0.57;0.57;;;16.60;73.60;;;16.64;59.67;94239.59;4684989;30;20244;-79
2022/06/09 05:08:01;;;;;;;0.50;0.50;;;16.60;73.60;;;16.69;59.60;94233.56;4699154;30;20211;-80
2022/06/09 05:10:28;;;;;;;0.50;0.50;;;16.60;73.40;;;16.73;60.16;94238.09;4714257;30;20220;-80
2022/06/09 05:12:56;;;;;;;0.50;0.50;;;16.60;73.40;;;16.78;59.54;94242.66;4713349;30;20208;-79
2022/06/09 05:15:24;;;;;;;0.30;0.30;;;16.70;73.50;;;16.80;59.46;94245.88;4712479;30;20232;-80
2022/06/09 05:17:52;;;;;;;0.50;0.50;;;16.70;73.50;;;16.83;59.15;94237.44;4699100;30;20212;-81
2022/06/09 05:20:23;;;;;;;0.50;0.50;;;16.80;73.50;;;16.87;59.06;94246.50;4699156;30;20314;-80
2022/06/09 05:22:51;;;;;;;0.57;0.57;;;16.80;73.30;;;16.90;59.60;94245.97;4701649;30;20727;-80
2022/06/09 05:25:18;;;;;;;0.50;0.50;;;16.80;73.40;;;16.89;59.81;94254.97;4698754;30;20259;-80
2022/06/09 05:27:46;;;;;;;0.50;0.50;;;16.80;73.40;;;16.92;59.26;94257.16;4687123;30;20204;-80
2022/06/09 05:30:21;;;;;;;0.68;0.68;;;16.90;73.40;;;16.95;59.23;94259.34;4701838;30;20239;-80
2022/06/09 05:32:48;;;;;;;0.50;0.50;;;17.00;73.60;;;16.97;59.32;94256.44;4727980;30;20306;-81
2022/06/09 05:35:17;;;;;;;0.52;0.52;;;16.90;73.50;;;17.03;59.75;94258.09;4716300;30;20255;-80
2022/06/09 05:46:05;;;;;;;0.50;0.50;;;17.10;73.60;;;17.36;59.00;94263.47;4698193;30;20297;-80
2022/06/09 05:48:33;;;;;;;0.50;0.50;;;17.30;73.80;;;17.46;59.47;94266.22;4715860;30;20206;-80
2022/06/09 05:51:01;;;;;;;0.50;0.50;;;17.30;73.70;;;17.56;58.95;94254.91;4705460;30;20241;-80
2022/06/09 05:53:28;;;;;;;0.50;0.50;;;17.40;73.80;;;17.72;58.80;94259.28;4713996;30;20202;-79
2022/06/09 05:55:55;;;;;;;0.52;0.52;;;17.60;74.00;;;17.87;59.11;94261.25;4712677;30;20663;-80
2022/06/09 05:58:22;;;;;;;0.50;0.50;;;17.60;73.80;;;18.03;58.72;94254.25;4715175;30;20675;-78
2022/06/09 06:00:50;;;;;;;0.50;0.50;;;17.70;73.80;;;18.19;58.49;94257.78;4716709;30;20238;-78
2022/06/09 06:03:18;;;;;;;0.50;0.50;;;18.00;73.90;;;18.33;58.60;94266.09;4706391;30;20211;-79
2022/06/09 06:08:31;;;;;;;0.50;0.50;;;18.10;73.50;;;18.57;57.89;94263.06;4724348;30;20254;-78
2022/06/09 06:10:58;;;;;;;0.50;0.50;;;18.30;73.20;;;18.65;57.95;94259.91;4708133;30;20718;-78
2022/06/09 06:13:26;;;;;;;0.65;0.65;;;18.40;73.10;;;18.72;57.98;94265.81;4723868;30;20298;-79
2022/06/09 06:15:53;;;;;;;0.40;0.40;;;18.50;73.00;;;18.79;57.43;94260.22;4709060;30;20703;-78
2022/06/09 06:18:41;;;;;;;0.40;0.40;;;18.60;72.70;;;18.90;57.40;94268.25;4707575;30;20229;-79
2022/06/09 06:21:08;;;;;;;0.50;0.50;;;18.80;72.70;;;19.01;57.66;94251.31;4709479;30;20276;-77
2022/06/09 06:23:35;;;;;;;0.50;0.50;;;18.90;72.70;;;19.17;57.76;94263.59;4708233;30;20207;-78
2022/06/09 06:26:03;;;;;;;0.40;0.40;;;19.00;72.60;;;19.34;55.97;94257.25;4709906;30;20737;-78
2022/06/09 06:28:30;;;;;;;0.40;0.40;;;19.20;72.00;;;19.47;55.93;94267.38;4691853;30;20213;-78
2022/06/09 06:30:57;;;;;;;0.40;0.40;;;19.40;72.60;;;19.61;55.37;94265.00;4724230;30;20717;-78
2022/06/09 06:33:26;;;;;;;0.50;0.50;;;19.50;71.20;;;19.73;55.52;94266.63;4704712;30;20213;-79
2022/06/09 06:35:53;;;;;;;0.40;0.40;;;19.70;71.40;;;19.81;54.33;94256.25;4685882;30;20243;-79
2022/06/09 06:38:21;;;;;;;0.40;0.40;;;19.90;70.50;;;19.87;53.77;94272.25;4690180;30;20592;-78
2022/06/09 06:40:49;;;;;;;0.40;0.40;;;19.90;70.10;;;19.88;53.60;94266.63;4717035;30;20622;-78
2022/06/09 06:43:16;;;;;;;0.50;0.50;;;20.00;69.90;;;19.91;54.41;94259.97;4725889;30;20204;-79
2022/06/09 06:45:44;;;;;;;0.40;0.40;;;20.00;69.70;;;19.87;53.43;94257.06;4700571;30;20285;-77
2022/06/09 06:48:11;;;;;;;0.40;0.40;;;20.00;69.30;;;19.87;53.56;94269.56;4680498;30;20246;-79
2022/06/09 06:50:38;;;;;;;0.50;0.50;;;20.10;69.00;;;19.81;53.45;94256.25;4694921;30;20592;-80
2022/06/09 06:53:05;;;;;;;0.40;0.40;;;20.10;68.90;;;19.80;53.11;94259.97;4696285;30;20201;-78
2022/06/09 06:55:34;;;;;;;0.40;0.40;;;20.00;68.70;;;19.76;53.14;94282.03;4684835;30;20235;-80
2022/06/09 06:58:01;;;;;;;0.47;0.47;;;19.90;68.50;;;19.67;53.36;94284.44;4710455;30;20216;-78
2022/06/09 07:00:31;;;;;;;0.40;0.40;;;19.90;68.60;;;19.63;53.61;94268.19;4715317;30;20773;-80
2022/06/09 07:02:58;;;;;;;0.40;0.40;;;19.90;68.70;;;19.59;53.41;94272.47;4718525;30;20249;-80
2022/06/09 07:05:45;;;;;;;0.45;0.45;;;19.80;68.70;;;19.49;53.99;94275.91;4702808;30;20247;-80
2022/06/09 07:08:15;;;;;;;0.40;0.40;;;19.80;68.80;;;19.52;54.24;94262.06;4686520;30;20213;-81
2022/06/09 07:10:45;;;;;;;0.40;0.40;;;19.80;69.20;;;19.53;54.56;94262.88;4701010;30;20287;-79
2022/06/09 07:13:13;;;;;;;0.40;0.40;;;19.80;69.20;;;19.55;54.19;94268.72;4674544;30;20200;-81
2022/06/09 07:15:40;;;;;;;0.40;0.40;;;19.80;69.40;;;19.58;54.77;94265.53;4700242;30;20310;-81
2022/06/09 07:18:09;;;;;;;0.40;0.40;;;19.70;69.60;;;19.66;54.75;94267.69;4700634;30;20204;-79
2022/06/09 07:20:40;;;;;;;0.40;0.40;;;19.70;69.70;;;19.74;54.79;94287.63;4701063;30;20227;-80
2022/06/09 07:23:08;;;;;;;0.50;0.50;;;19.80;69.60;;;19.81;54.28;94279.38;4686597;30;20731;-80
2022/06/09 07:25:37;;;;;;;0.40;0.40;;;19.90;69.80;;;19.91;54.82;94276.75;4720778;30;20299;-80
2022/06/09 07:28:05;;;;;;;0.40;0.40;;;19.90;69.80;;;20.02;54.00;94290.88;4715077;30;20204;-80
2022/06/09 07:30:33;;;;;;;0.40;0.40;;;20.00;69.60;;;20.10;53.82;94278.88;4729936;30;20226;-82
2022/06/09 07:33:01;;;;;;;0.40;0.40;;;20.00;69.60;;;20.15;53.90;94290.34;4691882;30;20213;-81
2022/06/09 07:35:32;;;;;;;0.45;0.45;;;20.10;69.50;;;20.25;53.91;94284.22;4697073;30;20251;-79
2022/06/09 07:38:00;;;;;;;0.50;0.50;;;20.20;69.70;;;20.36;54.10;94285.00;4698581;30;20707;-80
2022/06/09 07:40:27;;;;;;;0.60;0.60;;;20.30;69.60;;;20.48;54.11;94293.50;4684061;30;20785;-80
2022/06/09 07:42:54;;;;;;;0.40;0.40;;;20.40;69.60;;;20.56;53.73;94286.81;4698072;30;20216;-80
2022/06/09 07:45:23;;;;;;;0.40;0.40;;;20.50;69.20;;;20.64;53.69;94288.94;4701425;30;20616;-80
2022/06/09 07:47:50;;;;;;;0.38;0.38;;;20.50;69.10;;;20.75;53.27;94296.91;4717355;30;20211;-79
2022/06/09 07:50:18;;;;;;;0.40;0.40;;;20.70;69.20;;;20.85;53.15;94296.91;4731660;30;20612;-80
2022/06/09 07:52:47;;;;;;;0.40;0.40;;;20.70;69.00;;;20.99;53.27;94305.09;4713171;30;20655;-80
2022/06/09 07:55:16;;;;;;;0.40;0.40;;;20.80;69.10;;;21.13;52.94;94300.00;4701896;30;20226;-80
2022/06/09 07:57:44;;;;;;;0.50;0.50;;;21.00;69.00;;;21.27;53.33;94300.97;4716888;30;20216;-80
2022/06/09 08:00:14;;;;;;;0.50;0.50;;;21.10;69.10;;;21.44;53.25;94297.19;4702940;30;20251;-79
2022/06/09 08:02:43;;;;;;;0.40;0.40;;;21.20;69.00;;;21.56;52.45;94300.34;4713112;30;20213;-80
2022/06/09 08:05:12;;;;;;;0.40;0.40;;;21.40;68.80;;;21.72;52.96;94305.59;4714006;30;20243;-79
2022/06/09 08:07:40;;;;;;;0.40;0.40;;;21.60;68.80;;;21.81;51.70;94301.22;4713155;30;20208;-79
2022/06/09 08:10:14;;;;;;;0.50;0.50;;;21.70;68.20;;;21.93;51.59;94314.25;4713213;30;20322;-79
2022/06/09 08:12:41;;;;;;;0.40;0.40;;;21.80;67.50;;;21.98;51.43;94314.19;4726865;30;20585;-80
2022/06/09 08:15:09;;;;;;;0.40;0.40;;;21.90;67.50;;;21.98;50.67;94314.19;4699416;30;20649;-80
2022/06/09 08:17:38;;;;;;;0.40;0.40;;;22.00;67.00;;;21.99;51.04;94326.47;4698969;30;20210;-80
2022/06/09 08:20:07;;;;;;;0.40;0.40;;;22.00;67.00;;;21.99;51.40;94320.34;4670906;30;20237;-80
2022/06/09 08:22:34;;;;;;;0.30;0.30;;;22.00;66.90;;;21.99;50.81;94320.34;4694845;30;20309;-80
2022/06/09 08:25:02;;;;;;;0.50;0.50;;;22.10;66.90;;;21.97;50.91;94312.63;4699531;30;20236;-79
2022/06/09 08:27:30;;;;;;;0.40;0.40;;;22.10;66.60;;;21.92;50.68;94323.31;4685589;30;20250;-80
2022/06/09 08:29:57;;;;;;;0.38;0.38;;;22.10;66.70;;;21.90;50.88;94323.59;4702257;30;20286;-81
2022/06/09 08:32:24;;;;;;;0.45;0.45;;;22.00;66.50;;;21.91;51.23;94327.09;4717079;30;20729;-80
2022/06/09 08:34:51;;;;;;;0.40;0.40;;;22.00;66.80;;;21.85;50.36;94312.97;4731726;30;20567;-80
2022/06/09 08:37:18;;;;;;;0.40;0.40;;;22.10;66.50;;;21.87;51.14;94334.03;4717121;30;20489;-80
2022/06/09 08:39:45;;;;;;;0.40;0.40;;;22.00;66.50;;;21.83;50.69;94325.78;4700806;30;20293;-79
2022/06/09 08:42:34;;;;;;;0.40;0.40;;;22.00;66.50;;;21.86;50.58;94330.59;4702462;30;20248;-80
2022/06/09 08:45:10;;;;;;;0.50;0.50;;;22.00;66.70;;;21.89;51.10;94332.69;4714053;30;20709;-79
2022/06/09 08:47:45;;;;;;;0.40;0.40;;;22.00;66.80;;;21.98;51.03;94340.13;4692556;30;20200;-80
2022/06/09 08:50:43;;;;;;;0.52;0.52;;;22.00;66.40;;;22.09;51.22;94346.97;4712946;30;20253;-79
2022/06/09 08:53:31;;;;;;;0.40;0.40;;;22.10;66.50;;;22.23;51.31;94350.59;4701365;30;20227;-80
2022/06/09 08:56:16;;;;;;;0.35;0.35;;;22.20;66.80;;;22.38;51.23;94355.06;4698249;30;20268;-80
2022/06/09 08:58:59;;;;;;;0.40;0.40;;;22.30;66.80;;;22.49;50.73;94357.66;4685250;30;20578;-81
2022/06/09 09:01:43;;;;;;;0.60;0.60;;;22.50;66.90;;;22.60;50.15;94353.03;4733178;30;20228;-81
2022/06/09 09:04:26;;;;;;;0.32;0.32;;;22.50;66.40;;;22.64;49.64;94356.72;4706647;30;20290;-80
2022/06/09 09:07:23;;;;;;;0.50;0.50;;;22.60;65.90;;;22.60;49.41;94361.03;4723252;30;20196;-80
2022/06/09 09:09:50;;;;;;;0.40;0.40;;;22.70;65.60;;;22.59;49.61;94357.56;4707944;30;20239;-81
2022/06/09 09:12:42;;;;;;;0.40;0.40;;;22.80;65.70;;;22.56;49.60;94360.81;4695041;30;20216;-81
2022/06/09 09:15:31;;;;;;;0.40;0.40;;;22.70;65.60;;;22.51;49.65;94372.31;4730816;30;20223;-80
2022/06/09 09:18:41;;;;;;;0.45;0.45;;;22.70;65.60;;;22.43;49.29;94362.22;4705570;30;20618;-81
2022/06/09 09:21:27;;;;;;;0.47;0.47;;;22.70;65.60;;;22.33;49.29;94362.31;4713482;30;20327;-81
2022/06/09 09:24:17;;;;;;;0.30;0.30;;;22.60;65.20;;;22.26;49.90;94359.16;4716163;30;20230;-81
2022/06/09 09:26:57;;;;;;;0.40;0.40;;;22.60;65.50;;;22.22;49.93;94357.03;4711391;30;20219;-80
2022/06/09 09:29:46;;;;;;;0.40;0.40;;;22.50;65.50;;;22.23;49.93;94368.53;4698324;30;20327;-80
2022/06/09 09:32:22;;;;;;;0.40;0.40;;;22.40;65.40;;;22.25;49.89;94366.34;4696403;30;20230;-80
2022/06/09 09:34:51;;;;;;;0.50;0.50;;;22.40;65.30;;;22.26;49.91;94357.25;4696938;30;20761;-81
2022/06/09 09:37:26;;;;;;;0.40;0.40;;;22.40;65.40;;;22.29;49.77;94359.38;4698493;30;20218;-80
2022/06/09 09:40:29;;;;;;;0.40;0.40;;;22.40;65.40;;;22.34;50.08;94361.22;4697949;30;20696;-82
2022/06/09 09:43:00;;;;;;;0.32;0.32;;;22.40;65.90;;;22.42;49.69;94363.31;4698587;30;20239;-81
2022/06/09 09:45:55;;;;;;;0.50;0.50;;;22.50;65.40;;;22.50;49.75;94360.03;4685739;30;20236;-81
2022/06/09 09:48:24;;;;;;;0.30;0.30;;;22.50;65.50;;;22.59;49.68;94362.91;4698327;30;20275;-80
2022/06/09 09:51:01;;;;;;;0.40;0.40;;;22.60;65.70;;;22.66;50.07;94355.34;4698680;30;20256;-80
2022/06/09 09:53:57;;;;;;;0.40;0.40;;;22.60;65.60;;;22.76;49.69;94367.03;4685376;30;20200;-80
2022/06/09 09:56:36;;;;;;;0.45;0.45;;;22.60;65.50;;;22.77;49.13;94371.31;4703688;30;20231;-80
2022/06/09 09:59:22;;;;;;;0.50;0.50;;;22.80;65.70;;;22.76;49.11;94365.16;4715644;30;20209;-80
2022/06/09 10:09:07;;;;;;;0.40;0.40;;;22.80;65.70;;;22.74;49.66;94379.88;4688242;30;20221;-81
2022/06/09 10:11:59;;;;;;;0.40;0.40;;;22.80;65.70;;;22.70;49.06;94374.28;4697896;30;20687;-80
2022/06/09 10:14:54;;;;;;;0.43;0.43;;;22.80;65.70;;;22.68;49.62;94369.25;4701159;30;20244;-80
2022/06/09 10:17:55;;;;;;;0.43;0.43;;;22.70;65.60;;;22.68;49.34;94368.44;4714536;30;20434;-80
2022/06/09 10:20:43;;;;;;;0.30;0.30;;;22.80;65.70;;;22.71;49.38;94373.22;4712642;30;20227;-80
2022/06/09 10:23:10;;;;;;;0.40;0.40;;;22.70;65.60;;;22.70;49.42;94377.78;4698032;30;20444;-80
2022/06/09 10:26:06;;;;;;;0.30;0.30;;;22.70;65.60;;;22.73;49.34;94383.63;4711763;30;20242;-80
2022/06/09 10:28:54;;;;;;;0.70;0.70;;;22.70;65.60;;;22.69;49.29;94375.38;4712890;30;20274;-79
2022/06/09 10:31:51;;;;;;;0.30;0.30;;;22.70;65.60;;;22.63;49.36;94384.50;4715225;30;20579;-79
2022/06/09 10:34:52;;;;;;;0.40;0.40;;;22.70;65.60;;;22.60;49.43;94379.75;4724527;30;20232;-78
2022/06/09 10:37:38;;;;;;;0.38;0.38;;;22.60;65.50;;;22.55;49.09;94377.91;4730449;30;20588;-80
2022/06/09 10:40:20;;;;;;;0.60;0.60;;;22.60;65.50;;;22.53;49.25;94380.06;4685887;30;20228;-79
2022/06/09 10:43:03;;;;;;;0.40;0.40;;;22.60;65.50;;;22.50;49.48;94380.63;4701185;30;20212;-78
2022/06/09 10:46:04;;;;;;;0.50;0.50;;;22.60;65.50;;;22.49;49.30;94379.03;4701490;30;20229;-79
2022/06/09 10:55:14;;;;;;;0.30;0.30;;;22.50;65.40;;;22.40;49.09;94394.88;4711100;30;20227;-81
2022/06/09 10:55:16;;;;;;;0.43;0.43;;;22.50;65.50;;;22.35;49.28;94390.31;4711833;30;20232;-80
2022/06/09 10:58:04;;;;;;;0.30;0.30;;;22.40;65.40;;;22.29;49.00;94385.28;4721234;30;20311;-79
2022/06/09 11:00:39;;;;;;;0.40;0.40;;;22.40;65.40;;;22.23;49.07;94384.53;4703804;30;20782;-79
2022/06/09 11:03:17;;;;;;;0.40;0.40;;;22.30;65.20;;;22.19;49.26;94389.66;4717764;30;20274;-81
2022/06/09 11:06:27;;;;;;;0.47;0.47;;;22.20;65.20;;;22.15;49.30;94393.16;4717685;30;20438;-80
2022/06/09 11:09:31;;;;;;;0.40;0.40;;;22.20;65.20;;;22.09;49.49;94380.91;4693352;30;20224;-80